Time;durP1;ratioP1;P1;durP2;ratioP2;P2;SDS_P1;SDS_P2;PMS_P1;PMS_P2;Temp;Humidity;BMP_temperature;BMP_pressure;BME280_temperature;BME280_humidity;BME280_pressure;Samples;Min_cycle;Max_cycle;Signal;HPM_P1;HPM_P2
2023/07/14 00:01:51;;;;;;;5.13;3.00;;;614.40;2432.00;;;;;;5076105;28;20350;-72
2023/07/14 00:04:35;;;;;;;7.07;2.65;;;589.70;2432.00;;;;;;5075992;28;20027;-72
2023/07/14 00:07:03;;;;;;;5.95;3.25;;;589.70;2432.00;;;;;;5076124;28;20016;-72
2023/07/14 00:09:31;;;;;;;9.73;3.35;;;589.40;2432.00;;;;;;5075811;28;20058;-75
2023/07/14 00:11:58;;;;;;;6.45;2.63;;;589.30;2432.00;;;;;;5076264;28;20051;-73
2023/07/14 00:14:24;;;;;;;6.22;2.60;;;589.30;2432.00;;;;;;5075943;28;20104;-71
2023/07/14 00:16:51;;;;;;;7.22;2.70;;;589.20;2432.00;;;;;;5075954;28;20504;-73
2023/07/14 00:19:19;;;;;;;8.43;3.33;;;589.20;2432.00;;;;;;5075718;28;20032;-73
2023/07/14 00:21:45;;;;;;;8.90;3.03;;;589.10;2432.00;;;;;;5076116;28;20020;-73
2023/07/14 00:24:17;;;;;;;9.25;3.10;;;589.00;2432.00;;;;;;5075714;28;20032;-73
2023/07/14 00:26:49;;;;;;;9.95;3.03;;;589.00;2432.00;;;;;;5075631;28;20103;-76
2023/07/14 00:29:30;;;;;;;8.55;3.28;;;588.90;2432.00;;;;;;5075278;28;20041;-73
2023/07/14 00:31:57;;;;;;;6.78;2.95;;;588.90;2432.00;;;;;;5075516;28;20021;-72
2023/07/14 00:34:23;;;;;;;6.07;2.80;;;589.10;2432.00;;;;;;5075597;28;20056;-76
2023/07/14 00:36:49;;;;;;;4.93;2.70;;;589.20;2432.00;;;;;;5075252;28;20024;-72
2023/07/14 00:39:15;;;;;;;9.07;3.30;;;589.20;2432.00;;;;;;5075277;28;20131;-74
2023/07/14 00:41:42;;;;;;;6.90;3.03;;;589.30;2432.00;;;;;;5075296;28;20103;-79
2023/07/14 00:44:12;;;;;;;7.28;2.90;;;589.50;2432.00;;;;;;5075282;28;20107;-73
2023/07/14 00:46:38;;;;;;;8.85;2.92;;;589.60;2432.00;;;;;;5074981;28;20021;-76
2023/07/14 00:49:10;;;;;;;7.57;2.95;;;589.50;2432.00;;;;;;5074941;28;20036;-72
2023/07/14 00:51:37;;;;;;;5.22;3.22;;;589.40;2432.00;;;;;;5074928;28;20028;-72
2023/07/14 00:54:02;;;;;;;4.70;2.65;;;589.30;2432.00;;;;;;5074749;28;20033;-72
2023/07/14 00:56:33;;;;;;;7.53;2.90;;;589.50;2432.00;;;;;;5074840;28;20389;-72
2023/07/14 00:59:00;;;;;;;5.45;2.92;;;589.50;2432.00;;;;;;5074568;28;20055;-72
2023/07/14 01:01:27;;;;;;;5.97;2.60;;;589.50;2432.00;;;;;;5074756;28;20023;-72
2023/07/14 01:03:55;;;;;;;14.27;3.75;;;589.60;2432.00;;;;;;5074886;28;20020;-72
2023/07/14 01:06:25;;;;;;;8.52;3.35;;;589.50;2432.00;;;;;;5061456;28;20062;-75
2023/07/14 01:09:09;;;;;;;6.50;2.72;;;589.60;2432.00;;;;;;5074668;28;20043;-78
2023/07/14 01:11:37;;;;;;;5.20;2.90;;;589.50;2432.00;;;;;;5061284;28;20377;-74
2023/07/14 01:14:11;;;;;;;7.18;3.25;;;589.50;2432.00;;;;;;5074532;28;20082;-72
2023/07/14 01:16:40;;;;;;;5.80;2.90;;;589.70;2432.00;;;;;;5074638;28;20043;-72
2023/07/14 01:19:17;;;;;;;5.15;3.15;;;589.70;2432.00;;;;;;5074623;28;20036;-76
2023/07/14 01:21:47;;;;;;;5.15;2.75;;;589.60;2432.00;;;;;;5074418;28;20020;-79
2023/07/14 01:24:27;;;;;;;4.18;2.72;;;589.70;2432.00;;;;;;5074188;28;20029;-72
2023/07/14 01:27:07;;;;;;;5.80;2.55;;;589.70;2432.00;;;;;;5074495;28;20021;-73
2023/07/14 01:29:33;;;;;;;5.00;2.90;;;589.70;2432.00;;;;;;5062228;28;20131;-72
2023/07/14 01:31:59;;;;;;;7.60;3.20;;;589.70;2432.00;;;;;;5074042;28;20074;-74
2023/07/14 01:34:26;;;;;;;9.10;3.22;;;614.40;2432.00;;;;;;5074279;28;20031;-72
2023/07/14 01:36:58;;;;;;;6.80;2.63;;;614.40;2432.00;;;;;;5074026;28;20054;-72
2023/07/14 01:39:24;;;;;;;5.72;3.25;;;614.50;2432.00;;;;;;5072690;28;20362;-72
2023/07/14 01:41:50;;;;;;;4.40;2.35;;;614.60;2432.00;;;;;;5074065;28;20426;-73
2023/07/14 01:44:18;;;;;;;6.10;3.25;;;614.70;2432.00;;;;;;5074279;28;20059;-72
2023/07/14 01:46:45;;;;;;;6.03;2.60;;;614.60;2432.00;;;;;;5074181;28;20029;-72
2023/07/14 01:49:32;;;;;;;5.40;2.80;;;614.60;2432.00;;;;;;5073994;28;20045;-73
2023/07/14 01:52:01;;;;;;;7.35;2.78;;;614.50;2432.00;;;;;;5072775;28;20016;-72
2023/07/14 01:54:48;;;;;;;5.82;3.13;;;614.50;2432.00;;;;;;5073878;28;20032;-72
2023/07/14 01:57:18;;;;;;;6.53;2.72;;;614.60;2432.00;;;;;;5073835;28;20025;-72
2023/07/14 01:59:50;;;;;;;8.30;3.00;;;614.60;2432.00;;;;;;5073116;28;20482;-73
2023/07/14 02:02:32;;;;;;;8.35;3.22;;;614.70;2432.00;;;;;;5073855;28;20166;-73
2023/07/14 02:05:02;;;;;;;4.85;2.80;;;614.60;2432.00;;;;;;5073619;28;20012;-73
2023/07/14 02:07:28;;;;;;;7.05;3.10;;;614.50;2432.00;;;;;;5073491;28;20031;-72
2023/07/14 02:09:54;;;;;;;6.78;3.22;;;614.40;2432.00;;;;;;5089009;28;20028;-72
2023/07/14 02:12:31;;;;;;;7.68;2.88;;;614.40;2432.00;;;;;;5073427;28;20021;-72
2023/07/14 02:15:07;;;;;;;6.50;2.97;;;589.70;2432.00;;;;;;5072429;28;20021;-75
2023/07/14 02:17:34;;;;;;;;;;;589.70;2432.00;;;;;;5072620;28;20033;-73
2023/07/14 02:20:06;;;;;;;6.57;3.22;;;589.70;2432.00;;;;;;5073593;28;19904;-72
2023/07/14 02:22:33;;;;;;;5.53;3.00;;;589.50;2432.00;;;;;;5073505;28;20023;-73
2023/07/14 02:25:00;;;;;;;4.60;2.75;;;589.60;2432.00;;;;;;5073170;28;20027;-73
2023/07/14 02:27:26;;;;;;;6.45;3.08;;;589.50;2432.00;;;;;;5073498;28;20020;-72
2023/07/14 02:29:52;;;;;;;5.28;2.85;;;589.40;2432.00;;;;;;5073257;28;20429;-73
2023/07/14 02:32:32;;;;;;;6.47;2.70;;;589.30;2432.00;;;;;;5073081;28;20541;-72
2023/07/14 02:35:12;;;;;;;5.80;2.78;;;589.30;2432.00;;;;;;5073369;28;20037;-72
2023/07/14 02:38:02;;;;;;;4.57;3.00;;;589.40;2432.00;;;;;;5073506;28;20020;-72
2023/07/14 02:40:35;;;;;;;7.30;2.58;;;589.50;2432.00;;;;;;5073104;28;20043;-79
2023/07/14 02:43:04;;;;;;;7.63;2.97;;;589.50;2432.00;;;;;;5073163;28;20465;-71
2023/07/14 02:45:32;;;;;;;8.18;3.25;;;589.40;2432.00;;;;;;5073286;28;20024;-72
2023/07/14 02:47:59;;;;;;;5.57;3.25;;;589.30;2432.00;;;;;;5073180;28;20023;-72
2023/07/14 02:50:25;;;;;;;9.00;4.00;;;589.30;2432.00;;;;;;5060025;28;20064;-78
2023/07/14 02:52:51;;;;;;;9.90;3.78;;;589.20;2432.00;;;;;;5073064;28;20370;-73
2023/07/14 02:55:16;;;;;;;7.25;3.20;;;589.30;2432.00;;;;;;5073087;28;20029;-81
2023/07/14 02:57:43;;;;;;;5.75;3.72;;;589.30;2432.00;;;;;;5073073;28;20473;-79
2023/07/14 03:00:10;;;;;;;5.78;3.20;;;589.30;2432.00;;;;;;5072787;28;20063;-72
2023/07/14 03:02:38;;;;;;;6.70;4.43;;;589.20;2432.00;;;;;;5071759;28;20093;-82
2023/07/14 03:05:04;;;;;;;5.75;3.83;;;589.10;2432.00;;;;;;5071844;28;20385;-72
2023/07/14 03:07:32;;;;;;;8.60;4.80;;;589.10;2432.00;;;;;;5072871;28;20024;-73
2023/07/14 03:09:58;;;;;;;6.20;4.07;;;589.20;2432.00;;;;;;5073427;28;20029;-74
2023/07/14 03:12:23;;;;;;;8.73;4.38;;;588.90;2432.00;;;;;;5076885;28;20373;-72
2023/07/14 03:14:49;;;;;;;9.07;5.18;;;588.80;2432.00;;;;;;5076952;28;20031;-72
2023/07/14 03:17:15;;;;;;;7.93;5.30;;;588.90;2432.00;;;;;;5076693;28;20031;-76
2023/07/14 03:19:40;;;;;;;7.60;4.60;;;589.00;2432.00;;;;;;5076859;28;20103;-72
2023/07/14 03:22:06;;;;;;;8.75;4.95;;;589.20;2432.00;;;;;;5076764;28;20043;-71
2023/07/14 03:24:32;;;;;;;17.58;5.88;;;589.20;2432.00;;;;;;5076971;28;20065;-74
2023/07/14 03:26:57;;;;;;;8.88;5.03;;;589.00;2432.00;;;;;;5076599;28;20508;-73
2023/07/14 03:29:24;;;;;;;8.38;5.00;;;589.10;2432.00;;;;;;5063085;28;20049;-72
2023/07/14 03:31:49;;;;;;;9.85;5.15;;;589.20;2432.00;;;;;;5076514;28;20386;-72
2023/07/14 03:34:16;;;;;;;12.18;5.22;;;589.30;2432.00;;;;;;5075035;28;20036;-71
2023/07/14 03:36:42;;;;;;;12.82;4.97;;;589.20;2432.00;;;;;;5076657;28;20021;-74
2023/07/14 03:39:28;;;;;;;7.22;4.85;;;589.30;2432.00;;;;;;5075073;28;20166;-79
2023/07/14 03:41:55;;;;;;;23.13;5.95;;;589.20;2432.00;;;;;;5076119;28;20485;-71
2023/07/14 03:44:21;;;;;;;9.20;4.75;;;589.10;2432.00;;;;;;5076341;28;20028;-73
2023/07/14 03:46:47;;;;;;;7.35;4.70;;;589.20;2432.00;;;;;;5076275;28;20473;-77
2023/07/14 03:49:14;;;;;;;9.30;5.03;;;589.20;2432.00;;;;;;5076347;28;20036;-73
2023/07/14 03:51:40;;;;;;;12.32;4.68;;;589.20;2432.00;;;;;;5076191;28;20092;-71
2023/07/14 03:54:06;;;;;;;7.88;4.93;;;589.30;2432.00;;;;;;5076268;28;20024;-78
2023/07/14 03:56:32;;;;;;;7.93;4.82;;;589.30;2432.00;;;;;;5076059;28;20016;-72
2023/07/14 03:58:58;;;;;;;8.45;4.38;;;589.30;2432.00;;;;;;5075890;28;20152;-80
2023/07/14 04:01:25;;;;;;;11.02;4.50;;;589.30;2432.00;;;;;;5076023;28;20422;-82
2023/07/14 04:03:51;;;;;;;8.90;4.07;;;589.50;2432.00;;;;;;5065871;28;20493;-74
2023/07/14 04:06:17;;;;;;;8.43;4.20;;;589.20;2432.00;;;;;;5073024;28;20021;-71
2023/07/14 04:08:44;;;;;;;7.45;4.03;;;589.30;2432.00;;;;;;5076092;28;20066;-72
2023/07/14 04:11:11;;;;;;;10.30;4.55;;;589.30;2432.00;;;;;;5075625;28;20021;-72
2023/07/14 04:13:37;;;;;;;6.30;4.55;;;589.30;2432.00;;;;;;5075934;28;20016;-75
2023/07/14 04:16:04;;;;;;;7.60;3.85;;;589.20;2432.00;;;;;;5075899;28;20064;-72
2023/07/14 04:18:33;;;;;;;7.90;4.32;;;589.20;2432.00;;;;;;5075969;28;20025;-72
2023/07/14 04:21:06;;;;;;;6.13;3.83;;;589.20;2432.00;;;;;;5075114;28;20021;-71
2023/07/14 04:23:32;;;;;;;8.18;3.80;;;589.10;2432.00;;;;;;5075767;28;20499;-72
2023/07/14 04:25:59;;;;;;;8.30;3.85;;;589.10;2432.00;;;;;;5075278;28;20012;-71
2023/07/14 04:28:25;;;;;;;8.45;3.65;;;589.20;2432.00;;;;;;5075435;28;20032;-72
2023/07/14 04:30:55;;;;;;;6.82;3.63;;;589.20;2432.00;;;;;;5075603;28;20031;-73
2023/07/14 04:33:21;;;;;;;7.95;4.28;;;589.10;2432.00;;;;;;5075488;28;20013;-80
2023/07/14 04:35:51;;;;;;;7.15;3.60;;;589.20;2432.00;;;;;;5075216;28;20024;-72
2023/07/14 04:38:17;;;;;;;6.45;3.95;;;589.20;2432.00;;;;;;5075307;28;20027;-74
2023/07/14 04:40:44;;;;;;;6.80;3.80;;;589.30;2432.00;;;;;;5062106;28;20025;-72
2023/07/14 04:43:11;;;;;;;5.63;3.47;;;589.30;2432.00;;;;;;5071423;28;20025;-71
2023/07/14 04:45:41;;;;;;;6.00;3.67;;;589.30;2432.00;;;;;;5072456;28;20037;-72
2023/07/14 04:48:08;;;;;;;10.63;4.88;;;589.20;2432.00;;;;;;5064062;28;20051;-72
2023/07/14 04:50:35;;;;;;;9.77;3.85;;;589.20;2432.00;;;;;;5070450;28;20060;-74
2023/07/14 04:53:00;;;;;;;9.82;4.40;;;589.30;2432.00;;;;;;5065720;28;20075;-71
2023/07/14 04:55:27;;;;;;;7.57;3.97;;;589.30;2432.00;;;;;;5066762;28;20028;-74
2023/07/14 04:57:53;;;;;;;8.10;4.10;;;589.50;2432.00;;;;;;5068725;28;20020;-71
2023/07/14 05:00:20;;;;;;;9.25;4.65;;;589.50;2432.00;;;;;;5069624;28;20563;-72
2023/07/14 05:02:46;;;;;;;8.65;4.60;;;589.60;2432.00;;;;;;5064817;28;20016;-74
2023/07/14 05:05:23;;;;;;;7.07;3.50;;;589.60;2432.00;;;;;;5064132;28;20500;-72
2023/07/14 05:07:49;;;;;;;9.93;4.70;;;589.60;2432.00;;;;;;5069768;28;20074;-72
2023/07/14 05:10:16;;;;;;;7.85;4.22;;;589.60;2432.00;;;;;;5059606;28;20037;-71
2023/07/14 05:12:42;;;;;;;8.25;3.83;;;589.50;2432.00;;;;;;5071854;28;20024;-72
2023/07/14 05:15:10;;;;;;;6.45;4.20;;;589.60;2432.00;;;;;;5071272;28;20033;-71
2023/07/14 05:17:41;;;;;;;8.32;3.83;;;589.60;2432.00;;;;;;5068042;28;20021;-71
2023/07/14 05:20:10;;;;;;;7.30;3.55;;;589.50;2432.00;;;;;;5069587;28;20025;-73
2023/07/14 05:22:36;;;;;;;7.65;3.88;;;589.50;2432.00;;;;;;5072180;28;20028;-71
2023/07/14 05:25:03;;;;;;;7.07;3.88;;;589.50;2432.00;;;;;;5068553;28;20024;-71
2023/07/14 05:27:29;;;;;;;7.25;4.05;;;589.50;2432.00;;;;;;5064959;28;20029;-71
2023/07/14 05:29:55;;;;;;;10.95;4.95;;;589.60;2432.00;;;;;;5060454;28;20131;-71
2023/07/14 05:32:21;;;;;;;5.55;3.55;;;589.60;2432.00;;;;;;5064148;28;20103;-73
2023/07/14 05:34:48;;;;;;;11.70;4.45;;;589.70;2432.00;;;;;;5072037;28;20031;-72
2023/07/14 05:37:15;;;;;;;4.80;3.22;;;614.40;2432.00;;;;;;5073710;28;20373;-71
2023/07/14 05:39:42;;;;;;;8.68;3.50;;;614.40;2432.00;;;;;;5069306;28;20021;-71
2023/07/14 05:42:07;;;;;;;5.47;2.97;;;589.60;2432.00;;;;;;5065419;28;20029;-71
2023/07/14 05:44:33;;;;;;;4.88;3.22;;;614.50;2432.00;;;;;;5068487;28;20105;-71
2023/07/14 05:46:59;;;;;;;10.32;3.28;;;614.60;2432.00;;;;;;5072162;28;20052;-72
2023/07/14 05:49:25;;;;;;;7.82;3.10;;;614.70;2432.00;;;;;;5059461;28;20448;-70
2023/07/14 05:51:51;;;;;;;8.73;3.80;;;614.70;2432.00;;;;;;5068916;28;20024;-72
2023/07/14 05:54:17;;;;;;;6.78;3.83;;;614.70;2432.00;;;;;;5063793;28;20025;-72
2023/07/14 05:56:43;;;;;;;6.80;3.05;;;614.60;2432.00;;;;;;5063080;28;20474;-72
2023/07/14 05:59:10;;;;;;;12.23;3.83;;;614.60;2432.00;;;;;;5064390;28;20052;-72
2023/07/14 06:01:36;;;;;;;9.52;4.03;;;614.80;2432.00;;;;;;5067886;28;20095;-71
2023/07/14 06:04:02;;;;;;;12.60;3.88;;;614.80;2432.00;;;;;;5065379;28;20477;-72
2023/07/14 06:06:27;;;;;;;5.20;3.30;;;614.80;2432.00;;;;;;5068617;28;20020;-73
2023/07/14 06:08:54;;;;;;;6.28;3.50;;;614.80;2432.00;;;;;;5067378;28;20040;-71
2023/07/14 06:11:20;;;;;;;5.07;3.40;;;614.90;2432.00;;;;;;5066267;28;20385;-72
2023/07/14 06:13:46;;;;;;;7.32;3.50;;;615.00;2432.00;;;;;;5066486;28;20032;-71
2023/07/14 06:16:11;;;;;;;6.60;3.38;;;615.00;2432.00;;;;;;5063804;28;20031;-71
2023/07/14 06:18:37;;;;;;;5.70;3.22;;;614.90;2432.00;;;;;;5069102;28;20108;-71
2023/07/14 06:21:03;;;;;;;9.40;4.53;;;615.00;2432.00;;;;;;5063965;28;20079;-71
2023/07/14 06:23:28;;;;;;;5.82;3.67;;;615.20;2432.00;;;;;;5070991;28;20028;-77
2023/07/14 06:25:54;;;;;;;6.63;3.53;;;615.30;2432.00;;;;;;5064241;28;20541;-72
2023/07/14 06:28:20;;;;;;;8.55;3.63;;;615.30;2432.00;;;;;;5062847;28;20033;-71
2023/07/14 06:30:46;;;;;;;5.80;3.85;;;640.00;2432.00;;;;;;5066250;28;20045;-72
2023/07/14 06:33:12;;;;;;;9.20;3.30;;;640.10;2432.00;;;;;;5064345;28;20029;-71
2023/07/14 06:35:39;;;;;;;9.00;3.60;;;640.20;2432.00;;;;;;5072335;28;20035;-76
2023/07/14 06:38:05;;;;;;;8.30;3.75;;;640.30;2432.00;;;;;;5063105;28;20516;-71
2023/07/14 06:40:30;;;;;;;6.10;3.53;;;640.40;2432.00;;;;;;5063090;28;20029;-71
2023/07/14 06:43:00;;;;;;;9.50;3.70;;;640.40;2432.00;;;;;;5070850;28;20024;-70
2023/07/14 06:45:27;;;;;;;9.15;3.58;;;640.10;2432.00;;;;;;5068101;28;20067;-73
2023/07/14 06:47:52;;;;;;;10.15;4.57;;;640.50;2432.00;;;;;;5072400;28;20048;-72
2023/07/14 06:50:18;;;;;;;5.80;3.33;;;640.60;2432.00;;;;;;5072426;28;20473;-72
2023/07/14 06:52:44;;;;;;;4.55;3.22;;;640.50;2432.00;;;;;;5066062;28;20032;-71
2023/07/14 06:55:10;;;;;;;8.55;3.55;;;640.60;2432.00;;;;;;5068841;28;20036;-73
2023/07/14 06:57:36;;;;;;;5.03;3.05;;;640.50;2432.00;;;;;;5064639;28;20021;-70
2023/07/14 07:00:02;;;;;;;6.32;3.53;;;640.60;2432.00;;;;;;5065944;28;20051;-73
2023/07/14 07:02:28;;;;;;;7.20;3.97;;;640.70;2432.00;;;;;;5070209;28;20033;-72
2023/07/14 07:04:54;;;;;;;7.53;3.80;;;640.60;2432.00;;;;;;5065444;28;20025;-71
2023/07/14 07:07:19;;;;;;;9.35;4.07;;;640.70;2432.00;;;;;;5069912;28;20025;-72
2023/07/14 07:09:45;;;;;;;5.38;3.90;;;640.90;2432.00;;;;;;5065346;28;20116;-70
2023/07/14 07:12:11;;;;;;;5.20;3.63;;;665.60;2432.00;;;;;;5067805;28;20033;-72
2023/07/14 07:14:36;;;;;;;6.63;3.88;;;640.90;2432.00;;;;;;5063428;28;20477;-71
2023/07/14 07:17:02;;;;;;;7.07;3.22;;;665.70;2432.00;;;;;;5065967;28;20048;-73
2023/07/14 07:19:28;;;;;;;5.82;3.92;;;665.60;2432.00;;;;;;5072207;28;20032;-72
2023/07/14 07:21:55;;;;;;;9.88;4.30;;;665.90;2432.00;;;;;;5068053;28;20363;-73
2023/07/14 07:24:20;;;;;;;6.40;4.43;;;665.90;2432.00;;;;;;5063131;28;20039;-73
2023/07/14 07:26:46;;;;;;;6.53;4.72;;;665.90;2432.00;;;;;;5067494;28;20025;-71
2023/07/14 07:29:12;;;;;;;8.00;4.15;;;666.10;2432.00;;;;;;5069848;28;20047;-72
2023/07/14 07:31:38;;;;;;;6.43;4.63;;;666.30;2432.00;;;;;;5067151;28;20470;-71
2023/07/14 07:34:05;;;;;;;8.75;4.90;;;666.30;2432.00;;;;;;5070954;28;20035;-72
2023/07/14 07:36:31;;;;;;;7.97;4.00;;;666.50;2432.00;;;;;;5067627;28;20066;-69
2023/07/14 07:38:57;;;;;;;8.00;4.38;;;666.50;2432.00;;;;;;5063430;28;20029;-71
2023/07/14 07:41:25;;;;;;;14.38;8.27;;;691.30;2432.00;;;;;;5063323;28;20401;-71
2023/07/14 07:43:52;;;;;;;8.02;4.65;;;691.30;2432.00;;;;;;5063374;28;20032;-71
2023/07/14 07:46:21;;;;;;;9.57;4.53;;;691.20;2432.00;;;;;;5067376;28;20025;-69
2023/07/14 07:48:46;;;;;;;6.65;4.70;;;666.40;2432.00;;;;;;5063520;28;20565;-70
2023/07/14 07:51:12;;;;;;;7.35;4.80;;;691.30;2432.00;;;;;;5065638;28;20116;-71
2023/07/14 07:53:39;;;;;;;7.95;4.22;;;691.40;2432.00;;;;;;5069799;28;20096;-71
2023/07/14 07:56:05;;;;;;;7.80;5.70;;;691.40;2432.00;;;;;;5065711;28;20037;-70
2023/07/14 07:58:30;;;;;;;7.57;4.95;;;691.60;2432.00;;;;;;5073822;28;20033;-71
2023/07/14 08:01:02;;;;;;;10.50;5.82;;;691.70;2432.00;;;;;;5066567;28;20492;-70
2023/07/14 08:03:28;;;;;;;5.90;4.60;;;691.80;2432.00;;;;;;5068288;28;20033;-71
2023/07/14 08:06:02;;;;;;;11.90;5.30;;;691.70;2432.00;;;;;;5065588;28;20029;-71
2023/07/14 08:08:28;;;;;;;10.18;5.25;;;691.90;2432.00;;;;;;5070132;28;20036;-70
2023/07/14 08:10:54;;;;;;;9.23;5.40;;;692.00;2432.00;;;;;;5070793;28;20531;-71
2023/07/14 08:13:20;;;;;;;9.43;5.97;;;692.10;2432.00;;;;;;5064953;28;20025;-72
2023/07/14 08:15:46;;;;;;;7.50;4.80;;;692.00;2432.00;;;;;;5069616;28;20035;-73
2023/07/14 08:18:11;;;;;;;8.60;5.38;;;692.10;2432.00;;;;;;5070478;28;20385;-70
2023/07/14 08:20:37;;;;;;;8.68;5.53;;;716.80;2432.00;;;;;;5070858;28;20382;-70
2023/07/14 08:23:05;;;;;;;9.70;5.90;;;716.80;2432.00;;;;;;5073509;28;20039;-72
2023/07/14 08:25:31;;;;;;;9.48;5.45;;;692.10;2432.00;;;;;;5070477;28;20521;-72
2023/07/14 08:27:57;;;;;;;7.80;5.53;;;692.10;2432.00;;;;;;5071003;28;20032;-75
2023/07/14 08:30:23;;;;;;;9.73;5.32;;;716.80;2432.00;;;;;;5067643;28;20437;-72
2023/07/14 08:32:49;;;;;;;10.38;5.65;;;692.10;2432.00;;;;;;5065850;28;20029;-70
2023/07/14 08:35:21;;;;;;;9.23;5.97;;;716.80;2432.00;;;;;;5068154;28;20036;-71
2023/07/14 08:37:47;;;;;;;9.32;5.03;;;692.10;2432.00;;;;;;5072867;28;20107;-72
2023/07/14 08:40:15;;;;;;;7.43;4.68;;;692.10;2432.00;;;;;;5068781;28;20056;-74
2023/07/14 08:42:46;;;;;;;9.05;5.07;;;716.90;2432.00;;;;;;5065862;28;20021;-71
2023/07/14 08:45:38;;;;;;;8.57;5.25;;;716.90;2432.00;;;;;;5065110;28;20028;-76
2023/07/14 08:48:37;;;;;;;8.85;5.45;;;717.00;2432.00;;;;;;5032776;28;20037;-72
2023/07/14 08:51:23;;;;;;;9.95;4.82;;;716.90;2432.00;;;;;;5035136;28;20144;-71
2023/07/14 08:53:55;;;;;;;15.30;6.20;;;716.90;2432.00;;;;;;5032100;28;20037;-71
2023/07/14 08:56:23;;;;;;;8.43;6.13;;;716.80;2432.00;;;;;;5043780;28;20033;-72
2023/07/14 08:58:50;;;;;;;9.18;5.57;;;716.90;2432.00;;;;;;5036033;28;20581;-72
2023/07/14 09:01:40;;;;;;;15.40;5.30;;;716.90;2432.00;;;;;;5032508;28;20072;-73
2023/07/14 09:04:18;;;;;;;6.70;5.32;;;716.90;2432.00;;;;;;5035145;28;20392;-71
2023/07/14 09:06:46;;;;;;;6.45;4.53;;;716.90;2432.00;;;;;;5035333;28;20033;-71
2023/07/14 09:09:17;;;;;;;10.95;5.45;;;717.00;2432.00;;;;;;5041879;28;20453;-74
2023/07/14 09:11:55;;;;;;;10.05;6.35;;;717.00;2432.00;;;;;;5034569;28;20502;-73
2023/07/14 09:14:31;;;;;;;7.60;5.65;;;717.10;2432.00;;;;;;5034990;28;20044;-73
2023/07/14 09:17:10;;;;;;;8.52;5.38;;;717.10;2432.00;;;;;;5028121;28;20021;-74
2023/07/14 09:19:42;;;;;;;6.45;5.35;;;;;;;;;;5039815;28;20041;-72
2023/07/14 09:22:14;;;;;;;12.10;5.78;;;717.40;2432.00;;;;;;5039826;28;20127;-72
2023/07/14 09:24:49;;;;;;;7.22;5.43;;;717.50;2432.00;;;;;;5045906;28;20036;-71
2023/07/14 09:27:24;;;;;;;7.93;5.37;;;717.40;2432.00;;;;;;5064916;28;20115;-71
2023/07/14 09:29:51;;;;;;;10.40;5.88;;;717.20;2432.00;;;;;;5064357;28;20119;-76
2023/07/14 09:32:37;;;;;;;7.35;5.15;;;717.10;2432.00;;;;;;5068459;28;20074;-71
2023/07/14 09:35:18;;;;;;;10.40;5.38;;;717.20;2432.00;;;;;;5070216;28;20029;-70
2023/07/14 09:38:10;;;;;;;7.43;5.43;;;717.40;2432.00;;;;;;5060974;28;20028;-72
2023/07/14 09:40:38;;;;;;;8.50;5.47;;;717.50;2432.00;;;;;;5062942;28;20401;-73
2023/07/14 09:43:06;;;;;;;8.82;5.00;;;717.50;2432.00;;;;;;5072163;28;20021;-70
2023/07/14 09:45:35;;;;;;;10.55;5.80;;;;;;;;;;5072388;28;20035;-72
2023/07/14 09:48:15;;;;;;;9.07;5.05;;;742.60;2432.00;;;;;;5065319;28;20021;-72
2023/07/14 09:51:00;;;;;;;10.63;5.65;;;742.80;2432.00;;;;;;5072942;28;20036;-71
2023/07/14 09:53:27;;;;;;;6.93;5.27;;;742.80;2432.00;;;;;;5068366;28;20493;-71
2023/07/14 09:56:15;;;;;;;6.75;5.28;;;742.90;2432.00;;;;;;5064403;28;20285;-75
2023/07/14 09:58:52;;;;;;;9.63;5.10;;;742.80;2432.00;;;;;;5076680;28;20045;-71
2023/07/14 10:01:18;;;;;;;8.82;5.22;;;742.80;2432.00;;;;;;5066885;28;20028;-72
2023/07/14 10:03:56;;;;;;;12.60;5.57;;;743.00;2432.00;;;;;;5066468;28;20477;-73
2023/07/14 10:06:24;;;;;;;8.43;5.60;;;743.00;2432.00;;;;;;5067930;28;20079;-72
2023/07/14 10:08:54;;;;;;;8.10;4.95;;;;;;;;;;5067586;28;20111;-75
2023/07/14 10:11:37;;;;;;;6.55;4.82;;;768.00;2432.00;;;;;;5064965;28;20025;-73
2023/07/14 10:14:05;;;;;;;8.07;5.20;;;;;;;;;;5072379;28;20056;-75
2023/07/14 10:16:32;;;;;;;11.20;4.93;;;768.40;2304.00;;;;;;5064236;28;20047;-71
2023/07/14 10:19:04;;;;;;;13.40;5.35;;;768.60;2406.40;;;;;;5066702;28;20064;-77
2023/07/14 10:21:33;;;;;;;9.68;5.25;;;768.90;2432.00;;;;;;5068337;28;20083;-72
2023/07/14 10:24:05;;;;;;;10.02;5.38;;;793.70;2406.40;;;;;;5063975;28;20099;-73
2023/07/14 10:26:36;;;;;;;7.20;4.55;;;793.60;2329.60;;;;;;5064566;28;20076;-72
2023/07/14 10:29:11;;;;;;;6.57;4.65;;;768.60;2227.20;;;;;;5070254;28;20044;-75
2023/07/14 10:32:01;;;;;;;8.85;5.28;;;768.50;2406.40;;;;;;5071491;28;20025;-74
2023/07/14 10:34:49;;;;;;;9.98;4.63;;;768.40;2432.00;;;;;;5064795;28;20020;-72
2023/07/14 10:37:27;;;;;;;10.10;5.05;;;793.70;2329.60;;;;;;5067615;28;20033;-76
2023/07/14 10:40:11;;;;;;;6.90;4.93;;;794.00;2124.80;;;;;;5062825;28;20070;-75
2023/07/14 10:42:52;;;;;;;9.10;4.68;;;794.10;2227.20;;;;;;5068353;28;20048;-77
2023/07/14 10:45:18;;;;;;;7.32;5.13;;;794.50;2124.80;;;;;;5067467;28;20024;-73
2023/07/14 10:48:11;;;;;;;7.20;4.85;;;794.50;2150.40;;;;;;5063970;28;20025;-74
2023/07/14 10:50:43;;;;;;;9.57;5.25;;;794.20;2124.80;;;;;;5057094;28;20560;-73
2023/07/14 10:54:03;;;;;;;7.15;5.03;;;793.70;2278.40;;;;;;5062419;28;20391;-73
2023/07/14 10:56:36;;;;;;;7.15;5.05;;;794.10;2176.00;;;;;;5030135;28;20487;-74
2023/07/14 10:59:26;;;;;;;7.22;4.90;;;819.20;2176.00;;;;;;5029809;28;20069;-73
2023/07/14 11:02:10;;;;;;;6.65;4.97;;;819.30;2150.40;;;;;;5021075;28;20026;-75
2023/07/14 11:04:42;;;;;;;6.90;4.72;;;819.30;2124.80;;;;;;5029936;28;20038;-74
2023/07/14 11:07:16;;;;;;;7.90;4.88;;;819.50;2073.60;;;;;;5030086;28;20052;-72
2023/07/14 11:09:41;;;;;;;10.35;4.95;;;819.20;2022.40;;;;;;5030023;28;20033;-72
2023/07/14 11:12:30;;;;;;;10.77;4.93;;;819.50;1996.80;;;;;;5029916;28;20030;-72
2023/07/14 11:15:28;;;;;;;8.00;5.13;;;794.20;2022.40;;;;;;5029822;28;20124;-73
2023/07/14 11:18:15;;;;;;;9.30;4.90;;;793.70;2099.20;;;;;;4971815;28;20030;-74
2023/07/14 11:20:47;;;;;;;5.82;4.50;;;793.70;2150.40;;;;;;4971269;28;20509;-75
2023/07/14 11:23:37;;;;;;;9.80;5.05;;;794.00;2124.80;;;;;;4971025;28;20042;-74
2023/07/14 11:26:15;;;;;;;4.88;4.10;;;794.50;2099.20;;;;;;4968465;28;20023;-73
2023/07/14 11:28:56;;;;;;;7.30;5.00;;;819.30;2022.40;;;;;;4970887;28;20488;-72
2023/07/14 11:31:28;;;;;;;7.05;4.43;;;819.50;1996.80;;;;;;5023669;28;20056;-73
2023/07/14 11:34:16;;;;;;;8.88;4.85;;;819.50;2048.00;;;;;;5033448;28;20018;-73
2023/07/14 11:36:50;;;;;;;8.02;4.80;;;819.70;2022.40;;;;;;5008984;28;20037;-73
2023/07/14 11:39:19;;;;;;;7.32;4.93;;;819.60;1920.00;;;;;;5032108;28;20117;-72
2023/07/14 11:41:46;;;;;;;5.65;4.07;;;819.80;1894.40;;;;;;5034160;28;20561;-73
2023/07/14 11:44:17;;;;;;;7.55;5.05;;;819.80;1920.00;;;;;;5033256;28;20128;-73
2023/07/14 11:46:44;;;;;;;6.35;5.28;;;820.00;1868.80;;;;;;5033384;28;20029;-71
2023/07/14 11:49:29;;;;;;;6.53;4.60;;;819.80;1945.60;;;;;;5033403;28;20045;-72
2023/07/14 11:52:12;;;;;;;6.00;4.77;;;844.80;1894.40;;;;;;5031617;28;20022;-72
2023/07/14 11:55:02;;;;;;;7.65;4.82;;;844.90;1868.80;;;;;;5052712;28;20106;-73
2023/07/14 11:57:30;;;;;;;6.18;4.45;;;845.20;1894.40;;;;;;5074195;28;20025;-73
2023/07/14 12:00:23;;;;;;;6.10;4.88;;;845.30;1740.80;;;;;;5072849;28;20076;-71
2023/07/14 12:03:01;;;;;;;6.47;5.20;;;845.60;1792.00;;;;;;5065866;28;20024;-75
2023/07/14 12:05:27;;;;;;;7.95;4.80;;;845.70;1740.80;;;;;;5062834;28;20086;-73
2023/07/14 12:08:04;;;;;;;7.05;4.18;;;845.70;1715.20;;;;;;5070387;28;20445;-72
2023/07/14 12:10:42;;;;;;;7.93;4.50;;;870.40;1715.20;;;;;;5069568;28;20046;-72
2023/07/14 12:13:22;;;;;;;7.55;4.50;;;845.30;1740.80;;;;;;5072456;28;20603;-73
2023/07/14 12:15:54;;;;;;;4.75;3.78;;;845.50;1715.20;;;;;;5067772;28;20473;-72
2023/07/14 12:18:32;;;;;;;7.03;4.65;;;845.20;1689.60;;;;;;5062996;28;20449;-76
2023/07/14 12:21:17;;;;;;;8.15;4.20;;;819.90;1792.00;;;;;;5088013;28;20111;-75
2023/07/14 12:23:52;;;;;;;;;;;819.80;1766.40;;;;;;5056995;28;20041;-72
2023/07/14 12:26:31;;;;;;;9.45;5.10;;;819.80;1792.00;;;;;;5072503;28;20424;-72
2023/07/14 12:29:02;;;;;;;5.63;4.20;;;819.80;1817.60;;;;;;5068051;28;20036;-71
2023/07/14 12:31:34;;;;;;;7.90;4.75;;;820.10;1766.40;;;;;;5065910;28;20071;-72
2023/07/14 12:34:00;;;;;;;10.00;4.65;;;844.80;1792.00;;;;;;5072692;28;20032;-72
2023/07/14 12:36:29;;;;;;;7.20;4.65;;;819.80;1894.40;;;;;;5065665;28;20032;-71